Time;durP1;ratioP1;P1;durP2;ratioP2;P2;SDS_P1;SDS_P2;PMS_P1;PMS_P2;Temp;Humidity;BMP_temperature;BMP_pressure;BME280_temperature;BME280_humidity;BME280_pressure;Samples;Min_cycle;Max_cycle;Signal;HPM_P1;HPM_P2
2022/01/09 00:00:47;;;;;;;78.97;39.33;;;52.00;2227.20;;;;;;4996834;28;20460;-78
2022/01/09 00:03:17;;;;;;;61.53;35.20;;;51.90;2227.20;;;;;;5002055;28;20119;-79
2022/01/09 00:06:27;;;;;;;68.43;34.95;;;76.80;2227.20;;;;;;5020238;28;20040;-80
2022/01/09 00:19:57;;;;;;;139.63;60.03;;;51.60;2227.20;;;;;;4903500;29;20088;-81
2022/01/09 00:23:25;;;;;;;127.45;60.03;;;51.50;2227.20;;;;;;4846105;29;20038;-81
2022/01/09 00:25:53;;;;;;;139.55;64.47;;;51.50;2227.20;;;;;;4837716;29;20046;-79
2022/01/09 00:28:44;;;;;;;134.43;66.40;;;51.50;2227.20;;;;;;4842070;29;20050;-79
2022/01/09 00:31:19;;;;;;;149.60;71.90;;;51.50;2227.20;;;;;;4840917;29;20063;-79
2022/01/09 01:52:51;;;;;;;120.40;61.50;;;26.50;2201.60;;;;;;6038562;23;20062;-81
2022/01/09 01:55:18;;;;;;;111.10;58.90;;;51.20;2227.20;;;;;;4911891;29;20056;-76
2022/01/09 01:57:44;;;;;;;126.15;63.35;;;51.20;2099.20;;;;;;4927741;29;20044;-76
2022/01/09 02:00:14;;;;;;;122.00;62.85;;;26.50;2048.00;;;;;;4944833;29;20028;-76
2022/01/09 02:02:39;;;;;;;127.57;64.07;;;26.50;2124.80;;;;;;4926394;29;20502;-75
2022/01/09 02:05:07;;;;;;;142.43;69.85;;;26.40;2201.60;;;;;;4925439;29;20040;-75
2022/01/09 02:07:33;;;;;;;120.07;67.45;;;26.40;2201.60;;;;;;4943738;29;20122;-75
2022/01/09 02:09:59;;;;;;;120.57;67.32;;;26.40;2201.60;;;;;;4919113;29;20143;-76
2022/01/09 02:12:25;;;;;;;134.15;67.35;;;26.30;2201.60;;;;;;4927582;29;20031;-76
2022/01/09 02:14:51;;;;;;;127.10;65.47;;;26.30;2201.60;;;;;;4927101;29;20040;-76
2022/01/09 02:17:18;;;;;;;145.00;66.28;;;26.30;2201.60;;;;;;4944977;29;20163;-75
2022/01/09 02:19:55;;;;;;;129.60;63.88;;;26.30;2201.60;;;;;;4943581;29;20036;-75
2022/01/09 02:22:23;;;;;;;134.65;68.90;;;26.40;2201.60;;;;;;4926385;29;20057;-76
2022/01/09 02:24:50;;;;;;;150.27;72.90;;;26.40;2201.60;;;;;;4944812;29;20032;-75
2022/01/09 02:27:16;;;;;;;161.98;76.55;;;26.30;2201.60;;;;;;4927655;29;20032;-76
2022/01/09 02:29:45;;;;;;;152.75;69.78;;;26.30;2201.60;;;;;;4928255;29;20055;-75
2022/01/09 02:32:10;;;;;;;146.48;67.78;;;26.30;2201.60;;;;;;4927386;29;20063;-76
2022/01/09 02:34:36;;;;;;;156.75;69.82;;;26.30;2201.60;;;;;;4939515;29;20039;-75
2022/01/09 02:37:02;;;;;;;153.30;69.32;;;26.30;2201.60;;;;;;4942328;29;20087;-75
2022/01/09 02:39:28;;;;;;;151.05;67.32;;;26.30;2201.60;;;;;;4925258;29;20032;-76
2022/01/09 02:41:54;;;;;;;157.38;70.38;;;26.30;2201.60;;;;;;4924807;29;20031;-76
2022/01/09 02:44:19;;;;;;;145.07;65.72;;;26.20;2201.60;;;;;;4941843;29;20094;-75
2022/01/09 02:47:02;;;;;;;150.85;61.70;;;26.20;2201.60;;;;;;4942922;29;20034;-76
2022/01/09 02:49:29;;;;;;;144.95;64.47;;;26.30;2201.60;;;;;;4926125;29;20502;-76
2022/01/09 02:51:54;;;;;;;147.48;62.97;;;26.30;2201.60;;;;;;4923329;29;20407;-75
2022/01/09 02:57:04;;;;;;;151.38;64.25;;;26.20;2201.60;;;;;;4940373;29;20091;-75
2022/01/09 02:59:30;;;;;;;141.52;65.05;;;26.20;2201.60;;;;;;4923742;29;20415;-75
2022/01/09 03:01:56;;;;;;;141.27;64.88;;;26.20;2201.60;;;;;;4941118;29;20059;-75
2022/01/09 03:04:22;;;;;;;163.13;71.03;;;26.10;2201.60;;;;;;4946955;29;20478;-75
2022/01/09 03:06:47;;;;;;;173.43;77.55;;;26.20;2201.60;;;;;;4960658;29;20046;-75
2022/01/09 03:09:13;;;;;;;173.15;70.82;;;26.10;2201.60;;;;;;4944541;29;20031;-75
2022/01/09 03:11:40;;;;;;;166.15;75.38;;;26.10;2201.60;;;;;;4962759;29;20031;-76
2022/01/09 03:14:07;;;;;;;171.85;74.20;;;26.20;2201.60;;;;;;4963090;29;20071;-76
2022/01/09 03:16:34;;;;;;;155.00;68.45;;;26.30;2201.60;;;;;;4937893;29;20039;-76
2022/01/09 03:19:00;;;;;;;168.35;69.72;;;26.30;2201.60;;;;;;4923496;29;20372;-76
2022/01/09 03:21:25;;;;;;;183.73;77.45;;;26.40;2201.60;;;;;;4945475;29;20085;-76
2022/01/09 03:23:51;;;;;;;194.13;86.68;;;26.40;2201.60;;;;;;4945555;29;20039;-76
2022/01/09 03:26:17;;;;;;;194.65;80.85;;;26.20;2201.60;;;;;;4944707;29;20092;-77
2022/01/09 03:28:42;;;;;;;182.10;80.28;;;26.20;2201.60;;;;;;4944133;29;20038;-77
2022/01/09 03:31:08;;;;;;;222.05;91.13;;;26.10;2201.60;;;;;;4944205;29;20039;-76
2022/01/09 03:33:34;;;;;;;237.05;92.82;;;26.00;2201.60;;;;;;4942359;29;20051;-77
2022/01/09 03:36:00;;;;;;;223.02;86.53;;;26.10;2201.60;;;;;;4961588;29;20031;-76
2022/01/09 03:38:25;;;;;;;245.23;100.32;;;26.00;2201.60;;;;;;4958093;29;20498;-76
2022/01/09 03:40:51;;;;;;;208.88;86.28;;;26.00;2201.60;;;;;;4938431;29;20030;-77
2022/01/09 03:43:17;;;;;;;232.13;92.80;;;26.00;2201.60;;;;;;4955906;29;20155;-76
2022/01/09 03:45:43;;;;;;;214.57;99.55;;;26.00;2201.60;;;;;;4955687;28;20024;-76
2022/01/09 03:48:09;;;;;;;207.20;84.57;;;25.90;2201.60;;;;;;4955647;29;20043;-76
2022/01/09 03:50:35;;;;;;;237.90;99.95;;;25.90;2201.60;;;;;;4956374;29;20471;-76
2022/01/09 03:53:01;;;;;;;212.75;89.60;;;25.90;2201.60;;;;;;4939089;29;20039;-77
2022/01/09 03:55:26;;;;;;;200.23;87.93;;;26.00;2201.60;;;;;;4956364;29;20086;-76
2022/01/09 03:57:52;;;;;;;197.00;86.50;;;26.00;2201.60;;;;;;4939153;29;20031;-75
2022/01/09 04:00:22;;;;;;;199.75;86.20;;;26.00;2201.60;;;;;;4956044;29;20024;-75
2022/01/09 04:02:49;;;;;;;194.32;87.70;;;26.00;2201.60;;;;;;4955279;29;20107;-76
2022/01/09 04:05:15;;;;;;;203.63;86.95;;;25.90;2201.60;;;;;;4919736;29;20028;-76
2022/01/09 04:07:41;;;;;;;176.63;83.53;;;25.80;2201.60;;;;;;4920031;29;20028;-76
2022/01/09 04:10:07;;;;;;;200.30;88.47;;;25.80;2201.60;;;;;;4919297;29;20444;-75
2022/01/09 04:12:36;;;;;;;165.52;81.28;;;25.80;2201.60;;;;;;4936925;29;20028;-76
2022/01/09 04:15:06;;;;;;;161.52;80.82;;;25.80;2201.60;;;;;;4919929;29;20031;-76
2022/01/09 04:20:14;;;;;;;172.10;79.85;;;26.00;2201.60;;;;;;4936596;29;20031;-76
2022/01/09 04:22:40;;;;;;;172.70;77.53;;;26.00;2201.60;;;;;;4919768;29;20074;-76
2022/01/09 04:25:07;;;;;;;166.05;81.93;;;25.90;2201.60;;;;;;4919494;29;20046;-76
2022/01/09 04:27:34;;;;;;;168.80;78.72;;;26.00;2201.60;;;;;;4937301;29;20032;-76
2022/01/09 04:30:03;;;;;;;149.88;73.68;;;25.90;2201.60;;;;;;4919487;29;20675;-76
2022/01/09 04:32:28;;;;;;;160.77;75.45;;;25.90;2201.60;;;;;;4936967;29;20042;-75
2022/01/09 04:34:54;;;;;;;149.75;72.55;;;25.80;2201.60;;;;;;4935866;29;20027;-75
2022/01/09 04:37:20;;;;;;;144.93;71.38;;;25.90;2201.60;;;;;;4936124;29;20087;-75
2022/01/09 04:39:48;;;;;;;153.32;71.35;;;25.90;2201.60;;;;;;4918870;29;20024;-74
2022/01/09 04:42:14;;;;;;;155.20;71.15;;;25.80;2201.60;;;;;;4919204;29;20400;-75
2022/01/09 04:44:40;;;;;;;160.23;80.85;;;25.80;2201.60;;;;;;4919272;29;20031;-75
2022/01/09 04:47:10;;;;;;;161.00;77.22;;;26.00;2201.60;;;;;;4918698;29;20024;-74
2022/01/09 04:49:40;;;;;;;145.13;67.88;;;26.00;1945.60;;;;;;4916476;29;20024;-76
2022/01/09 04:52:16;;;;;;;151.00;68.30;;;26.00;1843.20;;;;;;4924885;29;20526;-79
2022/01/09 04:54:43;;;;;;;136.98;66.68;;;26.00;2201.60;;;;;;4945983;29;20052;-78
2022/01/09 04:57:14;;;;;;;137.85;70.13;;;26.10;2201.60;;;;;;4927163;29;20039;-79
2022/01/09 04:59:43;;;;;;;130.43;65.75;;;26.10;2201.60;;;;;;4926285;29;20116;-80
2022/01/09 05:02:10;;;;;;;135.88;66.35;;;26.10;2201.60;;;;;;5071131;23;20051;-79
2022/01/09 05:04:39;;;;;;;141.90;66.25;;;26.20;2201.60;;;;;;4954445;28;20045;-79
2022/01/09 05:07:05;;;;;;;125.30;63.53;;;26.10;2201.60;;;;;;4925545;29;20024;-79
2022/01/09 05:09:32;;;;;;;119.07;61.72;;;26.10;2201.60;;;;;;4925155;29;20098;-79
2022/01/09 05:11:58;;;;;;;120.20;59.72;;;26.10;2201.60;;;;;;4925485;29;20038;-78
2022/01/09 05:14:24;;;;;;;122.45;61.55;;;26.20;2201.60;;;;;;4925724;29;20024;-78
2022/01/09 05:16:50;;;;;;;118.05;59.88;;;26.20;2201.60;;;;;;4941810;29;20031;-79
2022/01/09 05:19:27;;;;;;;135.35;67.10;;;26.20;2201.60;;;;;;4938711;29;20043;-78
2022/01/09 05:21:54;;;;;;;108.93;57.00;;;26.20;2201.60;;;;;;4939026;29;20479;-78
2022/01/09 05:24:21;;;;;;;101.35;55.30;;;26.20;2201.60;;;;;;4940989;29;20032;-79
2022/01/09 05:26:47;;;;;;;106.93;53.05;;;26.30;2201.60;;;;;;4923153;29;20059;-78
2022/01/09 05:29:14;;;;;;;94.63;49.88;;;26.20;2201.60;;;;;;4940871;29;20547;-79
2022/01/09 05:31:41;;;;;;;95.40;52.30;;;26.20;2201.60;;;;;;4943004;29;20123;-80
2022/01/09 05:34:07;;;;;;;83.68;47.22;;;26.20;2201.60;;;;;;4945351;28;20030;-79
2022/01/09 05:36:33;;;;;;;89.30;51.60;;;26.10;2201.60;;;;;;4959120;28;20557;-78
2022/01/09 05:39:01;;;;;;;81.93;48.63;;;26.20;2201.60;;;;;;4976944;28;20023;-78
2022/01/09 05:41:27;;;;;;;88.97;46.30;;;26.10;2201.60;;;;;;4977415;28;20038;-78
2022/01/09 05:43:55;;;;;;;86.65;45.63;;;26.00;2201.60;;;;;;4959551;28;20030;-78
2022/01/09 05:46:28;;;;;;;78.10;43.67;;;26.00;2201.60;;;;;;4976980;28;20023;-78
2022/01/09 05:48:54;;;;;;;70.95;43.67;;;25.90;2201.60;;;;;;4958958;28;20034;-78
2022/01/09 05:51:20;;;;;;;69.35;43.40;;;26.00;2201.60;;;;;;4958884;28;20027;-78
2022/01/09 05:53:45;;;;;;;74.55;44.25;;;26.10;2201.60;;;;;;4940578;29;20031;-78
2022/01/09 05:56:11;;;;;;;72.15;43.60;;;26.00;2201.60;;;;;;4936418;29;20036;-78
2022/01/09 05:58:39;;;;;;;77.43;41.95;;;26.00;2201.60;;;;;;4938434;29;20107;-78
2022/01/09 06:01:04;;;;;;;78.25;43.47;;;26.00;2201.60;;;;;;4936187;29;20036;-78
2022/01/09 06:03:30;;;;;;;73.38;43.03;;;26.10;2201.60;;;;;;4936527;29;20054;-77
2022/01/09 06:05:58;;;;;;;71.28;42.70;;;26.10;2201.60;;;;;;4972349;28;20062;-78
2022/01/09 06:08:24;;;;;;;70.32;40.80;;;26.10;2201.60;;;;;;4977531;28;20023;-79
2022/01/09 06:10:49;;;;;;;71.10;41.80;;;26.30;2201.60;;;;;;4962530;28;20038;-77
2022/01/09 06:13:15;;;;;;;68.18;38.35;;;26.30;2201.60;;;;;;4980237;28;20367;-78
2022/01/09 06:15:41;;;;;;;64.75;36.45;;;26.10;2201.60;;;;;;4980225;28;20053;-78
2022/01/09 06:18:07;;;;;;;70.93;38.97;;;26.20;2201.60;;;;;;4962208;28;20482;-78
2022/01/09 06:20:33;;;;;;;68.78;39.78;;;26.30;2201.60;;;;;;4962393;28;20533;-77
2022/01/09 06:22:59;;;;;;;73.13;40.58;;;26.30;2201.60;;;;;;4965482;28;20027;-78
2022/01/09 06:25:25;;;;;;;72.57;39.97;;;26.20;2201.60;;;;;;4960050;29;20107;-77
2022/01/09 06:27:51;;;;;;;70.75;39.95;;;26.20;2201.60;;;;;;4942763;29;20062;-78
2022/01/09 06:30:16;;;;;;;74.28;40.45;;;26.30;2201.60;;;;;;4960044;29;20030;-77
2022/01/09 06:32:42;;;;;;;76.78;39.35;;;26.50;2201.60;;;;;;4942867;29;20048;-77
2022/01/09 06:35:10;;;;;;;73.43;42.97;;;51.20;2227.20;;;;;;4962880;28;20410;-77
2022/01/09 06:37:36;;;;;;;72.60;41.85;;;51.30;2227.20;;;;;;4959082;29;20027;-77
2022/01/09 06:40:03;;;;;;;69.70;39.58;;;51.30;2227.20;;;;;;4945801;29;20039;-77
2022/01/09 06:42:29;;;;;;;71.65;41.50;;;51.40;2227.20;;;;;;4942971;29;20019;-77
2022/01/09 06:44:56;;;;;;;66.03;38.22;;;51.30;2227.20;;;;;;4960756;29;20023;-77
2022/01/09 06:47:22;;;;;;;72.88;40.88;;;51.40;2227.20;;;;;;4945326;29;20035;-77
2022/01/09 06:49:48;;;;;;;68.28;38.80;;;51.40;2227.20;;;;;;4942091;29;20032;-77
2022/01/09 06:52:14;;;;;;;63.53;36.42;;;51.50;2227.20;;;;;;4932517;29;20039;-78
2022/01/09 06:54:39;;;;;;;61.97;38.15;;;51.50;2227.20;;;;;;4945485;29;20031;-77
2022/01/09 06:57:05;;;;;;;66.45;40.47;;;51.50;2227.20;;;;;;4962408;28;20026;-77
2022/01/09 06:59:32;;;;;;;67.78;41.22;;;51.50;2227.20;;;;;;4942858;28;20379;-78
2022/01/09 07:01:58;;;;;;;76.45;42.75;;;51.60;2227.20;;;;;;4962425;28;20062;-77
2022/01/09 07:04:24;;;;;;;78.07;45.50;;;51.60;2227.20;;;;;;4942868;29;20565;-77
2022/01/09 07:06:51;;;;;;;69.75;43.33;;;51.30;2227.20;;;;;;4944988;28;20026;-78
2022/01/09 07:09:16;;;;;;;67.63;39.42;;;51.30;2227.20;;;;;;4945413;29;20093;-77
2022/01/09 07:11:42;;;;;;;63.58;39.40;;;51.40;2227.20;;;;;;4962294;28;20534;-77
2022/01/09 07:14:08;;;;;;;63.67;38.65;;;51.40;2227.20;;;;;;4939464;29;20039;-77
2022/01/09 07:16:34;;;;;;;66.18;40.05;;;51.40;2227.20;;;;;;4943351;28;20395;-77
2022/01/09 07:18:59;;;;;;;62.90;37.17;;;51.60;2227.20;;;;;;4937274;29;20031;-77
2022/01/09 07:21:25;;;;;;;64.60;40.25;;;51.60;2227.20;;;;;;4942355;29;20486;-77
2022/01/09 07:23:54;;;;;;;69.97;38.30;;;51.70;2227.20;;;;;;4962044;28;20034;-77
2022/01/09 07:26:20;;;;;;;58.63;34.35;;;51.70;2227.20;;;;;;4942263;29;20020;-77
2022/01/09 07:28:46;;;;;;;63.63;37.22;;;51.70;2227.20;;;;;;4959760;29;20027;-77
2022/01/09 07:31:12;;;;;;;59.92;35.22;;;51.60;2227.20;;;;;;4959857;28;20034;-78
2022/01/09 07:33:37;;;;;;;58.88;34.45;;;51.70;2227.20;;;;;;4959984;28;20034;-77
2022/01/09 07:36:03;;;;;;;55.17;35.08;;;51.70;2227.20;;;;;;4960689;28;20398;-77
2022/01/09 07:38:30;;;;;;;62.15;35.75;;;51.70;2227.20;;;;;;4979644;28;20062;-77
2022/01/09 07:40:57;;;;;;;56.42;34.60;;;51.90;2227.20;;;;;;4961819;28;20038;-77
2022/01/09 07:43:23;;;;;;;63.60;35.38;;;51.90;2227.20;;;;;;4978130;28;20109;-77
2022/01/09 07:45:48;;;;;;;57.88;34.65;;;51.90;2227.20;;;;;;4961749;28;20113;-78
2022/01/09 07:48:14;;;;;;;57.38;34.75;;;51.90;2227.20;;;;;;4979256;28;20033;-78
2022/01/09 07:50:40;;;;;;;61.22;34.97;;;51.90;2227.20;;;;;;4978801;28;20030;-78
2022/01/09 07:53:06;;;;;;;68.85;38.42;;;52.00;2227.20;;;;;;4978861;28;20033;-77
2022/01/09 07:55:31;;;;;;;63.75;36.80;;;52.00;2227.20;;;;;;4961182;28;20113;-77
2022/01/09 07:57:57;;;;;;;63.38;38.08;;;52.10;2227.20;;;;;;4980156;28;20027;-77
2022/01/09 08:00:23;;;;;;;72.20;40.78;;;52.00;2227.20;;;;;;4962868;28;20033;-78
2022/01/09 08:02:51;;;;;;;66.70;39.33;;;52.10;2227.20;;;;;;4962567;28;20178;-79
2022/01/09 08:05:17;;;;;;;66.50;39.00;;;52.10;2227.20;;;;;;4963325;28;20049;-78
2022/01/09 08:07:43;;;;;;;65.65;41.13;;;76.80;2227.20;;;;;;4980140;28;20061;-78
2022/01/09 08:10:09;;;;;;;72.35;45.13;;;76.80;2227.20;;;;;;4970586;28;20030;-78
2022/01/09 08:12:36;;;;;;;79.93;45.45;;;76.80;2227.20;;;;;;4942194;29;20047;-79
2022/01/09 08:15:02;;;;;;;86.82;52.25;;;76.80;2227.20;;;;;;4947697;28;20054;-78
2022/01/09 08:17:30;;;;;;;85.15;52.10;;;52.10;2227.20;;;;;;4927703;29;20038;-78
2022/01/09 08:19:55;;;;;;;88.95;57.08;;;76.80;2227.20;;;;;;4935182;28;20040;-79
2022/01/09 08:22:29;;;;;;;87.18;51.75;;;76.80;2227.20;;;;;;4949827;29;20023;-79
2022/01/09 08:24:55;;;;;;;76.20;47.70;;;76.90;2227.20;;;;;;4941998;29;20031;-78
2022/01/09 08:27:21;;;;;;;68.63;43.22;;;76.90;2227.20;;;;;;4947551;29;20038;-79
2022/01/09 08:29:46;;;;;;;70.60;45.38;;;76.90;2227.20;;;;;;4949116;28;20899;-79
2022/01/09 08:32:13;;;;;;;92.60;55.50;;;76.80;2227.20;;;;;;4960511;28;20170;-78
2022/01/09 08:34:40;;;;;;;79.43;47.45;;;76.90;2227.20;;;;;;4963150;28;20038;-79
2022/01/09 08:37:11;;;;;;;73.82;45.22;;;76.90;2227.20;;;;;;4944124;29;20027;-78
2022/01/09 08:39:41;;;;;;;76.75;48.28;;;77.00;2227.20;;;;;;4944542;29;20489;-78
2022/01/09 08:42:07;;;;;;;84.22;47.35;;;77.00;2227.20;;;;;;4944144;29;20031;-78
2022/01/09 08:44:32;;;;;;;89.30;51.17;;;76.90;2227.20;;;;;;4961469;29;20482;-78
2022/01/09 08:46:58;;;;;;;84.40;48.40;;;76.90;2227.20;;;;;;4961581;29;20498;-78
2022/01/09 08:49:24;;;;;;;73.32;45.17;;;76.90;2227.20;;;;;;4943967;29;20027;-78
2022/01/09 08:51:50;;;;;;;74.75;46.53;;;76.90;2227.20;;;;;;4961153;29;20081;-78
2022/01/09 08:54:17;;;;;;;82.18;50.20;;;76.90;2227.20;;;;;;4942418;29;20027;-77
2022/01/09 08:56:42;;;;;;;81.82;50.92;;;77.00;2227.20;;;;;;4960624;29;20098;-78
2022/01/09 08:59:09;;;;;;;79.72;49.15;;;77.00;2227.20;;;;;;4959671;29;20055;-77
2022/01/09 09:01:35;;;;;;;85.50;50.65;;;76.90;2227.20;;;;;;4942580;29;20035;-79
2022/01/09 09:04:03;;;;;;;77.10;47.28;;;76.90;2227.20;;;;;;4959806;28;20070;-78
2022/01/09 09:06:28;;;;;;;73.53;46.83;;;76.90;2227.20;;;;;;4943010;29;20028;-78
2022/01/09 09:08:54;;;;;;;60.90;40.47;;;76.80;2227.20;;;;;;4941382;29;20122;-78
2022/01/09 09:11:20;;;;;;;63.47;39.08;;;76.90;2227.20;;;;;;4940348;29;20054;-78
2022/01/09 09:13:45;;;;;;;65.60;43.20;;;76.80;2227.20;;;;;;4940667;29;20126;-78
2022/01/09 09:16:11;;;;;;;72.85;44.80;;;76.90;2227.20;;;;;;4941535;29;20062;-79
2022/01/09 09:18:37;;;;;;;66.32;39.33;;;77.00;2227.20;;;;;;4962681;29;20087;-79
2022/01/09 09:21:04;;;;;;;66.95;39.30;;;77.00;2227.20;;;;;;4945628;29;20073;-79
2022/01/09 09:23:32;;;;;;;64.05;38.83;;;77.00;2227.20;;;;;;4944393;29;20046;-78
2022/01/09 09:25:57;;;;;;;65.38;39.72;;;76.80;2227.20;;;;;;4942907;29;20414;-79
2022/01/09 09:28:23;;;;;;;62.15;35.88;;;76.80;2227.20;;;;;;4960512;29;20098;-79
2022/01/09 09:30:49;;;;;;;69.70;38.65;;;76.80;2227.20;;;;;;4959265;28;20050;-78
2022/01/09 09:33:14;;;;;;;62.00;41.75;;;76.90;2227.20;;;;;;4977390;28;20053;-78
2022/01/09 09:35:40;;;;;;;85.25;47.05;;;77.00;2227.20;;;;;;4942362;29;20046;-79
2022/01/09 09:38:06;;;;;;;82.68;48.00;;;77.00;2227.20;;;;;;4926491;29;20027;-79
2022/01/09 09:40:32;;;;;;;83.43;46.53;;;77.00;2227.20;;;;;;4942361;29;20031;-79
2022/01/09 09:42:58;;;;;;;71.15;41.30;;;77.10;2227.20;;;;;;4961009;28;20036;-79
2022/01/09 09:45:25;;;;;;;70.25;41.03;;;77.10;2227.20;;;;;;4929912;29;20035;-78
2022/01/09 09:47:53;;;;;;;91.20;53.45;;;77.00;2227.20;;;;;;4944992;29;20034;-78
2022/01/09 09:50:20;;;;;;;105.40;54.63;;;77.10;2227.20;;;;;;4944584;29;20849;-78
2022/01/09 09:52:48;;;;;;;103.97;58.45;;;77.20;2227.20;;;;;;4961744;29;20111;-78
2022/01/09 09:55:17;;;;;;;80.32;46.70;;;77.20;2227.20;;;;;;4962034;29;20051;-78
2022/01/09 09:57:43;;;;;;;83.80;46.20;;;77.10;2227.20;;;;;;4945503;29;20033;-78
2022/01/09 10:00:15;;;;;;;91.50;51.20;;;77.10;2227.20;;;;;;4946706;29;20046;-79
2022/01/09 10:02:58;;;;;;;93.53;54.97;;;77.20;2227.20;;;;;;4963757;29;20043;-78
2022/01/09 10:05:33;;;;;;;93.45;52.22;;;77.20;2227.20;;;;;;4958467;28;20486;-78
2022/01/09 10:08:15;;;;;;;84.90;46.80;;;77.20;2227.20;;;;;;4966787;28;20462;-79
2022/01/09 10:10:41;;;;;;;86.75;54.05;;;77.10;2227.20;;;;;;4965601;28;20034;-78
2022/01/09 10:13:13;;;;;;;92.22;56.25;;;77.10;2227.20;;;;;;4965020;28;20502;-78
2022/01/09 10:15:55;;;;;;;104.95;58.53;;;77.10;2227.20;;;;;;4947676;29;20034;-79
2022/01/09 10:18:56;;;;;;;101.70;59.50;;;77.20;2227.20;;;;;;4966301;28;20110;-79
2022/01/09 10:21:26;;;;;;;87.82;46.67;;;77.20;2227.20;;;;;;4885854;29;20033;-79
2022/01/09 10:24:10;;;;;;;76.10;45.53;;;77.20;2227.20;;;;;;4870369;29;20072;-78
2022/01/09 10:26:40;;;;;;;77.13;42.05;;;77.20;2227.20;;;;;;4870069;29;20037;-79
2022/01/09 10:29:07;;;;;;;78.10;45.83;;;77.30;2227.20;;;;;;4888186;29;20048;-79
2022/01/09 10:31:44;;;;;;;82.55;48.47;;;77.30;2227.20;;;;;;4868837;29;20025;-78
2022/01/09 10:34:12;;;;;;;71.95;43.20;;;77.30;2227.20;;;;;;4886605;29;20040;-78
2022/01/09 10:36:44;;;;;;;78.80;47.42;;;77.30;2227.20;;;;;;4915362;29;20040;-77
2022/01/09 10:39:27;;;;;;;84.72;49.63;;;77.40;2227.20;;;;;;4885465;29;20403;-78
2022/01/09 10:41:57;;;;;;;96.13;54.03;;;77.30;2227.20;;;;;;4901594;29;20035;-77
2022/01/09 10:44:31;;;;;;;86.03;51.95;;;77.40;2227.20;;;;;;4901133;29;20047;-77
2022/01/09 10:47:05;;;;;;;85.70;49.45;;;77.50;2227.20;;;;;;4901879;29;20048;-78
2022/01/09 10:49:51;;;;;;;86.97;51.78;;;77.50;2227.20;;;;;;4897740;29;20487;-78
2022/01/09 10:52:22;;;;;;;97.97;53.17;;;77.50;2227.20;;;;;;4902411;29;20660;-78
2022/01/09 10:54:50;;;;;;;98.68;58.28;;;77.60;2227.20;;;;;;4913626;29;20036;-78
2022/01/09 10:57:23;;;;;;;97.32;57.60;;;77.50;2227.20;;;;;;4943565;29;20046;-78
2022/01/09 10:59:50;;;;;;;90.90;53.83;;;77.50;2227.20;;;;;;4958228;29;20046;-78
2022/01/09 11:02:17;;;;;;;97.43;53.58;;;77.50;2227.20;;;;;;4940327;28;20047;-79
2022/01/09 11:04:48;;;;;;;91.93;53.95;;;77.60;2227.20;;;;;;4956007;28;20671;-79
2022/01/09 11:07:14;;;;;;;90.90;52.45;;;77.60;2227.20;;;;;;4948224;28;20030;-79
2022/01/09 11:09:45;;;;;;;85.03;49.70;;;77.50;2227.20;;;;;;4942099;29;20074;-79
2022/01/09 11:12:16;;;;;;;82.95;46.88;;;77.60;2227.20;;;;;;4945499;28;20019;-79
2022/01/09 11:14:43;;;;;;;78.07;45.75;;;77.40;2227.20;;;;;;4968006;28;20027;-79
2022/01/09 11:38:29;;;;;;;77.97;45.10;;;102.40;2227.20;;;;;;5424771;23;20058;-79
2022/01/09 11:41:26;;;;;;;80.25;48.28;;;102.40;2227.20;;;;;;4959426;28;20050;-79
2022/01/09 11:44:04;;;;;;;68.72;43.97;;;77.60;2227.20;;;;;;4968654;28;20038;-79
2022/01/09 11:46:51;;;;;;;83.80;45.40;;;102.40;2227.20;;;;;;4967489;28;20037;-78
2022/01/09 11:49:20;;;;;;;90.18;50.80;;;77.70;2227.20;;;;;;4963230;28;20082;-80
2022/01/09 11:51:51;;;;;;;85.25;50.25;;;77.60;2227.20;;;;;;4961215;28;20023;-79
2022/01/09 11:54:18;;;;;;;87.38;50.65;;;77.50;2227.20;;;;;;4973418;28;20082;-79
2022/01/09 11:56:54;;;;;;;76.50;46.17;;;77.40;2227.20;;;;;;4957767;28;20035;-79
2022/01/09 11:59:30;;;;;;;78.13;47.47;;;77.40;2227.20;;;;;;4967330;28;20109;-79
2022/01/09 12:01:57;;;;;;;;;;;77.40;2227.20;;;;;;4955578;28;20031;-78
2022/01/09 12:04:35;;;;;;;92.35;52.78;;;77.40;2227.20;;;;;;4971509;28;19914;-79
2022/01/09 12:07:54;;;;;;;100.07;58.03;;;77.40;2227.20;;;;;;4954155;28;20131;-79
2022/01/09 12:10:27;;;;;;;91.45;52.15;;;77.50;2227.20;;;;;;4904264;29;20423;-78
2022/01/09 12:12:54;;;;;;;83.35;49.10;;;77.50;2227.20;;;;;;4916817;29;20156;-78
2022/01/09 12:15:55;;;;;;;95.75;51.65;;;77.50;2227.20;;;;;;4931872;29;20044;-78
2022/01/09 12:18:44;;;;;;;82.28;47.10;;;77.70;2227.20;;;;;;4864160;29;20038;-78
2022/01/09 12:21:37;;;;;;;75.20;45.15;;;77.60;2227.20;;;;;;4867205;29;20107;-78
2022/01/09 12:24:56;;;;;;;82.13;44.47;;;77.50;2227.20;;;;;;4860380;29;20029;-78
2022/01/09 12:27:43;;;;;;;70.88;40.13;;;77.50;2227.20;;;;;;4844373;29;20038;-77
2022/01/09 12:30:11;;;;;;;79.68;45.08;;;77.50;2227.20;;;;;;4845618;29;20505;-79
2022/01/09 12:32:39;;;;;;;91.13;52.55;;;77.50;2227.20;;;;;;4847388;29;20037;-79
2022/01/09 12:35:15;;;;;;;102.20;56.95;;;77.50;2227.20;;;;;;5004271;23;20540;-79
2022/01/09 12:37:45;;;;;;;;;;;77.50;2227.20;;;;;;4973523;28;20030;-78
2022/01/09 12:40:13;;;;;;;74.88;43.25;;;77.50;2227.20;;;;;;4976209;28;19973;-77
2022/01/09 12:42:46;;;;;;;83.15;49.65;;;77.40;2227.20;;;;;;4972731;28;20485;-78
2022/01/09 12:45:12;;;;;;;83.45;44.55;;;77.40;2227.20;;;;;;4976073;28;20042;-78
2022/01/09 12:47:40;;;;;;;79.43;42.92;;;77.30;2227.20;;;;;;4975811;28;20030;-77
2022/01/09 12:50:05;;;;;;;74.28;42.50;;;77.30;2227.20;;;;;;4958206;28;20078;-77
2022/01/09 12:52:31;;;;;;;75.45;44.25;;;77.40;2227.20;;;;;;4949671;28;20043;-77
2022/01/09 12:55:09;;;;;;;84.60;45.10;;;77.40;2227.20;;;;;;4974152;28;20027;-77
2022/01/09 12:57:55;;;;;;;81.72;49.28;;;77.30;2227.20;;;;;;4953059;28;20023;-77
2022/01/09 13:00:29;;;;;;;89.45;52.33;;;77.20;2227.20;;;;;;4949422;28;20027;-77
2022/01/09 13:02:57;;;;;;;106.43;61.15;;;77.20;2227.20;;;;;;4950385;28;20027;-78
2022/01/09 13:05:27;;;;;;;209.25;114.78;;;77.10;2227.20;;;;;;4964491;28;20027;-77
2022/01/09 13:08:00;;;;;;;147.90;76.50;;;77.10;2227.20;;;;;;4971816;28;20100;-78
2022/01/09 13:10:34;;;;;;;141.98;82.22;;;77.20;2227.20;;;;;;4954162;28;20033;-78
2022/01/09 13:13:01;;;;;;;98.70;57.05;;;77.30;2227.20;;;;;;4966544;28;20041;-77
2022/01/09 13:15:37;;;;;;;113.25;63.05;;;77.20;2227.20;;;;;;4962713;28;20031;-77
2022/01/09 13:18:04;;;;;;;115.47;65.35;;;77.10;2227.20;;;;;;4942441;29;20080;-77
2022/01/09 13:20:31;;;;;;;118.15;65.90;;;77.00;2227.20;;;;;;4965532;28;20031;-78
2022/01/09 13:23:09;;;;;;;97.35;55.08;;;77.20;2227.20;;;;;;4950553;28;20498;-78
2022/01/09 13:25:47;;;;;;;92.97;55.03;;;77.20;2227.20;;;;;;4952193;28;20062;-78
2022/01/09 13:28:23;;;;;;;97.07;54.30;;;77.20;2227.20;;;;;;4972826;28;20480;-77
2022/01/09 13:30:56;;;;;;;92.63;55.63;;;77.10;2227.20;;;;;;4956444;28;20027;-77
2022/01/09 13:33:21;;;;;;;99.63;55.38;;;77.10;2227.20;;;;;;4957083;28;20098;-78
2022/01/09 13:35:47;;;;;;;99.88;59.55;;;77.10;2227.20;;;;;;4955132;28;20102;-78
2022/01/09 13:38:13;;;;;;;98.82;55.72;;;77.00;2227.20;;;;;;4960741;28;20043;-77
2022/01/09 13:40:40;;;;;;;97.93;54.35;;;77.10;2227.20;;;;;;4953425;28;20038;-77
2022/01/09 13:43:06;;;;;;;103.65;57.53;;;77.00;2227.20;;;;;;4962640;28;20487;-77
2022/01/09 13:45:35;;;;;;;93.53;53.63;;;77.00;2227.20;;;;;;4945569;28;20035;-79
2022/01/09 13:48:01;;;;;;;102.75;57.20;;;76.90;2227.20;;;;;;4952332;28;20054;-77
2022/01/09 13:50:35;;;;;;;100.10;54.70;;;76.90;2227.20;;;;;;4939705;29;20078;-77
2022/01/09 13:53:10;;;;;;;101.78;56.75;;;76.90;2227.20;;;;;;4953648;29;20126;-77
2022/01/09 13:55:37;;;;;;;107.13;57.28;;;76.90;2227.20;;;;;;4967553;28;20038;-77
2022/01/09 13:58:07;;;;;;;106.20;58.72;;;76.80;2227.20;;;;;;4955343;28;20640;-77
2022/01/09 14:00:36;;;;;;;112.65;61.15;;;76.80;2227.20;;;;;;4954154;28;20031;-77
2022/01/09 14:03:04;;;;;;;123.68;68.22;;;76.80;2227.20;;;;;;4953838;28;20023;-77
2022/01/09 14:05:42;;;;;;;126.10;65.15;;;52.10;2227.20;;;;;;4971301;28;20027;-77
2022/01/09 14:08:10;;;;;;;121.45;66.50;;;76.80;2227.20;;;;;;4957315;28;20071;-77
2022/01/09 14:10:47;;;;;;;106.80;61.95;;;76.80;2227.20;;;;;;4947596;28;20039;-76
2022/01/09 14:13:17;;;;;;;107.07;55.30;;;76.80;2227.20;;;;;;4963209;28;20110;-77